sensor_id;sensor_type;location;lat;lon;timestamp;pressure;altitude;pressure_sealevel;temperature;humidity
25080;BME280;13071;48.868;9.996;2023-03-15T00:02:11;95952.69;;;0.80;100.00
25080;BME280;13071;48.868;9.996;2023-03-15T00:04:38;95959.88;;;0.80;100.00
25080;BME280;13071;48.868;9.996;2023-03-15T00:07:06;95957.16;;;0.85;100.00
25080;BME280;13071;48.868;9.996;2023-03-15T00:09:32;95963.66;;;0.79;100.00
25080;BME280;13071;48.868;9.996;2023-03-15T00:11:59;95970.31;;;0.76;100.00
25080;BME280;13071;48.868;9.996;2023-03-15T00:14:27;95978.94;;;0.68;100.00
25080;BME280;13071;48.868;9.996;2023-03-15T00:16:53;95989.00;;;0.71;100.00
25080;BME280;13071;48.868;9.996;2023-03-15T00:19:20;95995.66;;;0.74;100.00
25080;BME280;13071;48.868;9.996;2023-03-15T00:21:46;96002.59;;;0.70;100.00
25080;BME280;13071;48.868;9.996;2023-03-15T00:24:13;96001.94;;;0.59;100.00
25080;BME280;13071;48.868;9.996;2023-03-15T00:26:39;96012.59;;;0.59;100.00
25080;BME280;13071;48.868;9.996;2023-03-15T00:29:06;96011.31;;;0.52;100.00
25080;BME280;13071;48.868;9.996;2023-03-15T00:31:34;96019.31;;;0.52;100.00
25080;BME280;13071;48.868;9.996;2023-03-15T00:34:01;96024.41;;;0.48;100.00
25080;BME280;13071;48.868;9.996;2023-03-15T00:36:27;96025.78;;;0.40;100.00
25080;BME280;13071;48.868;9.996;2023-03-15T00:38:55;96026.88;;;0.39;100.00
25080;BME280;13071;48.868;9.996;2023-03-15T00:41:21;96032.47;;;0.38;100.00
25080;BME280;13071;48.868;9.996;2023-03-15T00:43:48;96050.53;;;0.41;100.00
25080;BME280;13071;48.868;9.996;2023-03-15T00:46:16;96045.25;;;0.36;100.00
25080;BME280;13071;48.868;9.996;2023-03-15T00:48:48;96058.09;;;0.29;100.00
25080;BME280;13071;48.868;9.996;2023-03-15T00:51:17;96050.66;;;0.26;100.00
25080;BME280;13071;48.868;9.996;2023-03-15T00:53:46;96069.22;;;0.36;100.00
25080;BME280;13071;48.868;9.996;2023-03-15T00:56:15;96079.44;;;0.24;100.00
25080;BME280;13071;48.868;9.996;2023-03-15T00:58:42;96078.03;;;0.31;100.00
25080;BME280;13071;48.868;9.996;2023-03-15T01:01:12;96079.63;;;0.32;100.00
25080;BME280;13071;48.868;9.996;2023-03-15T01:03:39;96082.03;;;0.34;100.00
25080;BME280;13071;48.868;9.996;2023-03-15T01:06:09;96106.78;;;0.34;100.00
25080;BME280;13071;48.868;9.996;2023-03-15T01:08:35;96101.41;;;0.39;100.00
25080;BME280;13071;48.868;9.996;2023-03-15T01:11:03;96102.81;;;0.27;100.00
25080;BME280;13071;48.868;9.996;2023-03-15T01:13:30;96113.69;;;0.30;100.00
25080;BME280;13071;48.868;9.996;2023-03-15T01:15:56;96117.97;;;0.31;100.00
25080;BME280;13071;48.868;9.996;2023-03-15T01:18:23;96125.44;;;0.29;100.00
25080;BME280;13071;48.868;9.996;2023-03-15T01:20:50;96133.72;;;0.23;100.00
25080;BME280;13071;48.868;9.996;2023-03-15T01:23:18;96141.44;;;0.24;100.00
25080;BME280;13071;48.868;9.996;2023-03-15T01:25:44;96147.28;;;0.26;100.00
25080;BME280;13071;48.868;9.996;2023-03-15T01:28:11;96139.00;;;0.28;100.00
25080;BME280;13071;48.868;9.996;2023-03-15T01:30:38;96152.28;;;0.33;100.00
25080;BME280;13071;48.868;9.996;2023-03-15T01:33:04;96142.19;;;0.30;100.00
25080;BME280;13071;48.868;9.996;2023-03-15T01:35:31;96152.09;;;0.24;100.00
25080;BME280;13071;48.868;9.996;2023-03-15T01:37:57;96155.50;;;0.30;100.00
25080;BME280;13071;48.868;9.996;2023-03-15T01:40:25;96159.16;;;0.44;100.00
25080;BME280;13071;48.868;9.996;2023-03-15T01:43:11;96168.72;;;0.40;100.00
25080;BME280;13071;48.868;9.996;2023-03-15T01:46:11;96170.75;;;0.58;100.00
25080;BME280;13071;48.868;9.996;2023-03-15T01:48:42;96177.34;;;0.66;100.00
25080;BME280;13071;48.868;9.996;2023-03-15T01:51:14;96183.09;;;0.83;100.00
25080;BME280;13071;48.868;9.996;2023-03-15T01:53:44;96193.38;;;0.95;100.00
25080;BME280;13071;48.868;9.996;2023-03-15T01:56:15;96185.78;;;1.12;100.00
25080;BME280;13071;48.868;9.996;2023-03-15T01:58:42;96183.34;;;1.15;100.00
25080;BME280;13071;48.868;9.996;2023-03-15T02:01:10;96172.31;;;1.27;100.00
25080;BME280;13071;48.868;9.996;2023-03-15T02:03:40;96171.47;;;1.32;100.00
25080;BME280;13071;48.868;9.996;2023-03-15T02:06:13;96185.34;;;1.28;100.00
25080;BME280;13071;48.868;9.996;2023-03-15T02:08:44;96184.56;;;1.28;100.00
25080;BME280;13071;48.868;9.996;2023-03-15T02:11:16;96186.72;;;1.26;100.00
25080;BME280;13071;48.868;9.996;2023-03-15T02:13:43;96194.88;;;1.35;99.58
25080;BME280;13071;48.868;9.996;2023-03-15T02:16:10;96198.13;;;1.32;99.44
25080;BME280;13071;48.868;9.996;2023-03-15T02:18:37;96204.84;;;1.24;99.98
25080;BME280;13071;48.868;9.996;2023-03-15T02:21:12;96201.94;;;1.20;99.45
25080;BME280;13071;48.868;9.996;2023-03-15T02:23:40;96203.53;;;1.50;99.13
25080;BME280;13071;48.868;9.996;2023-03-15T02:26:16;96203.59;;;1.45;98.92
25080;BME280;13071;48.868;9.996;2023-03-15T02:28:48;96204.34;;;1.51;98.35
25080;BME280;13071;48.868;9.996;2023-03-15T02:31:15;96217.09;;;1.54;98.31
25080;BME280;13071;48.868;9.996;2023-03-15T02:33:43;96214.69;;;1.57;98.01
25080;BME280;13071;48.868;9.996;2023-03-15T02:36:15;96214.31;;;1.64;97.82
25080;BME280;13071;48.868;9.996;2023-03-15T02:38:43;96230.31;;;1.64;97.55
25080;BME280;13071;48.868;9.996;2023-03-15T02:41:10;96229.44;;;1.73;97.36
25080;BME280;13071;48.868;9.996;2023-03-15T02:43:37;96232.19;;;1.63;97.21
25080;BME280;13071;48.868;9.996;2023-03-15T02:46:07;96233.56;;;1.61;97.32
25080;BME280;13071;48.868;9.996;2023-03-15T02:48:34;96232.94;;;1.69;96.27
25080;BME280;13071;48.868;9.996;2023-03-15T02:51:01;96243.56;;;1.74;96.21
25080;BME280;13071;48.868;9.996;2023-03-15T02:53:28;96247.41;;;1.63;96.76
25080;BME280;13071;48.868;9.996;2023-03-15T02:55:56;96256.72;;;1.65;97.01
25080;BME280;13071;48.868;9.996;2023-03-15T02:58:22;96264.47;;;1.67;97.29
25080;BME280;13071;48.868;9.996;2023-03-15T03:00:51;96258.88;;;1.63;96.93
25080;BME280;13071;48.868;9.996;2023-03-15T03:03:19;96254.97;;;1.56;96.87
25080;BME280;13071;48.868;9.996;2023-03-15T03:05:46;96258.03;;;1.68;97.66
25080;BME280;13071;48.868;9.996;2023-03-15T03:08:12;96263.84;;;1.75;96.91
25080;BME280;13071;48.868;9.996;2023-03-15T03:10:40;96267.63;;;1.69;96.41
25080;BME280;13071;48.868;9.996;2023-03-15T03:13:07;96264.50;;;1.62;95.98
25080;BME280;13071;48.868;9.996;2023-03-15T03:15:33;96264.06;;;1.50;95.75
25080;BME280;13071;48.868;9.996;2023-03-15T03:18:00;96271.28;;;1.49;95.82
25080;BME280;13071;48.868;9.996;2023-03-15T03:20:28;96270.03;;;1.42;96.50
25080;BME280;13071;48.868;9.996;2023-03-15T03:22:54;96280.47;;;1.38;96.47
25080;BME280;13071;48.868;9.996;2023-03-15T03:25:21;96284.19;;;1.37;96.36
25080;BME280;13071;48.868;9.996;2023-03-15T03:27:51;96288.50;;;1.33;96.14
25080;BME280;13071;48.868;9.996;2023-03-15T03:30:21;96301.88;;;1.28;96.55
25080;BME280;13071;48.868;9.996;2023-03-15T03:32:48;96303.88;;;1.41;96.44
25080;BME280;13071;48.868;9.996;2023-03-15T03:35:15;96321.78;;;1.36;96.93
25080;BME280;13071;48.868;9.996;2023-03-15T03:37:43;96326.78;;;1.47;96.37
25080;BME280;13071;48.868;9.996;2023-03-15T03:40:11;96337.75;;;1.41;96.21
25080;BME280;13071;48.868;9.996;2023-03-15T03:42:37;96348.66;;;1.44;96.37
25080;BME280;13071;48.868;9.996;2023-03-15T03:45:05;96349.44;;;1.45;96.04
25080;BME280;13071;48.868;9.996;2023-03-15T03:47:32;96352.28;;;1.58;96.10
25080;BME280;13071;48.868;9.996;2023-03-15T03:49:58;96354.66;;;1.60;95.83
25080;BME280;13071;48.868;9.996;2023-03-15T03:52:25;96361.16;;;1.49;96.32
25080;BME280;13071;48.868;9.996;2023-03-15T03:54:53;96365.59;;;1.58;95.95
25080;BME280;13071;48.868;9.996;2023-03-15T03:57:19;96374.25;;;1.45;96.40
25080;BME280;13071;48.868;9.996;2023-03-15T03:59:46;96375.16;;;1.64;95.19
25080;BME280;13071;48.868;9.996;2023-03-15T04:02:13;96377.88;;;1.59;95.24
25080;BME280;13071;48.868;9.996;2023-03-15T04:04:39;96379.25;;;1.57;95.11
25080;BME280;13071;48.868;9.996;2023-03-15T04:07:06;96383.84;;;1.46;95.64
25080;BME280;13071;48.868;9.996;2023-03-15T04:09:33;96397.38;;;1.55;94.71
25080;BME280;13071;48.868;9.996;2023-03-15T04:12:03;96400.91;;;1.45;94.77
25080;BME280;13071;48.868;9.996;2023-03-15T04:14:30;96398.41;;;1.59;94.75
25080;BME280;13071;48.868;9.996;2023-03-15T04:16:56;96398.06;;;1.37;94.91
25080;BME280;13071;48.868;9.996;2023-03-15T04:19:23;96402.84;;;1.35;95.73
25080;BME280;13071;48.868;9.996;2023-03-15T04:21:50;96408.16;;;1.40;95.98
25080;BME280;13071;48.868;9.996;2023-03-15T04:24:16;96406.88;;;1.32;96.54
25080;BME280;13071;48.868;9.996;2023-03-15T04:26:43;96420.13;;;1.47;96.16
25080;BME280;13071;48.868;9.996;2023-03-15T04:29:11;96413.78;;;1.38;96.51
25080;BME280;13071;48.868;9.996;2023-03-15T04:31:39;96415.34;;;1.39;97.95
25080;BME280;13071;48.868;9.996;2023-03-15T04:34:07;96425.50;;;1.37;96.52
25080;BME280;13071;48.868;9.996;2023-03-15T04:36:34;96422.50;;;1.49;96.23
25080;BME280;13071;48.868;9.996;2023-03-15T04:39:01;96428.66;;;1.44;94.98
25080;BME280;13071;48.868;9.996;2023-03-15T04:41:30;96424.69;;;1.42;94.76
25080;BME280;13071;48.868;9.996;2023-03-15T04:43:59;96445.78;;;1.38;94.95
25080;BME280;13071;48.868;9.996;2023-03-15T04:46:27;96439.13;;;1.36;94.87
25080;BME280;13071;48.868;9.996;2023-03-15T04:48:53;96446.53;;;1.44;95.51
25080;BME280;13071;48.868;9.996;2023-03-15T04:51:20;96444.38;;;1.46;95.55
25080;BME280;13071;48.868;9.996;2023-03-15T04:53:46;96448.34;;;1.48;95.92
25080;BME280;13071;48.868;9.996;2023-03-15T04:56:13;96455.56;;;1.53;95.77
25080;BME280;13071;48.868;9.996;2023-03-15T04:58:39;96450.56;;;1.36;95.84
25080;BME280;13071;48.868;9.996;2023-03-15T05:01:06;96456.66;;;1.47;95.69
25080;BME280;13071;48.868;9.996;2023-03-15T05:03:34;96448.72;;;1.37;96.14
25080;BME280;13071;48.868;9.996;2023-03-15T05:06:00;96458.28;;;1.43;97.30
25080;BME280;13071;48.868;9.996;2023-03-15T05:08:32;96454.75;;;1.52;95.37
25080;BME280;13071;48.868;9.996;2023-03-15T05:10:58;96456.34;;;1.48;95.62
25080;BME280;13071;48.868;9.996;2023-03-15T05:13:25;96453.50;;;1.35;95.84
25080;BME280;13071;48.868;9.996;2023-03-15T05:15:52;96457.47;;;1.42;96.03
25080;BME280;13071;48.868;9.996;2023-03-15T05:18:18;96457.53;;;1.32;96.22
25080;BME280;13071;48.868;9.996;2023-03-15T05:20:47;96457.00;;;1.30;95.88
25080;BME280;13071;48.868;9.996;2023-03-15T05:23:14;96453.50;;;1.35;95.63
25080;BME280;13071;48.868;9.996;2023-03-15T05:25:40;96460.22;;;1.27;95.95
25080;BME280;13071;48.868;9.996;2023-03-15T05:28:07;96458.06;;;1.29;96.77
25080;BME280;13071;48.868;9.996;2023-03-15T05:30:34;96452.72;;;1.34;96.81
25080;BME280;13071;48.868;9.996;2023-03-15T05:33:00;96460.47;;;1.30;96.99
25080;BME280;13071;48.868;9.996;2023-03-15T05:35:29;96463.66;;;1.33;96.58
25080;BME280;13071;48.868;9.996;2023-03-15T05:37:57;96461.81;;;1.33;95.61
25080;BME280;13071;48.868;9.996;2023-03-15T05:40:23;96471.44;;;1.19;95.37
25080;BME280;13071;48.868;9.996;2023-03-15T05:42:50;96471.94;;;1.31;95.96
25080;BME280;13071;48.868;9.996;2023-03-15T05:45:16;96469.28;;;1.26;95.32
25080;BME280;13071;48.868;9.996;2023-03-15T05:47:43;96477.00;;;1.33;95.59
25080;BME280;13071;48.868;9.996;2023-03-15T05:50:10;96477.00;;;1.33;95.17
25080;BME280;13071;48.868;9.996;2023-03-15T05:52:37;96475.38;;;1.37;95.16
25080;BME280;13071;48.868;9.996;2023-03-15T05:55:05;96482.31;;;1.38;94.11
25080;BME280;13071;48.868;9.996;2023-03-15T05:57:32;96479.72;;;1.22;93.61
25080;BME280;13071;48.868;9.996;2023-03-15T05:59:59;96469.06;;;1.22;93.57
25080;BME280;13071;48.868;9.996;2023-03-15T06:02:26;96481.56;;;1.27;93.88
25080;BME280;13071;48.868;9.996;2023-03-15T06:04:53;96477.19;;;1.46;92.51
25080;BME280;13071;48.868;9.996;2023-03-15T06:07:19;96477.59;;;1.63;91.28
25080;BME280;13071;48.868;9.996;2023-03-15T06:09:46;96477.94;;;1.96;89.43
25080;BME280;13071;48.868;9.996;2023-03-15T06:12:14;96479.50;;;2.02;89.15
25080;BME280;13071;48.868;9.996;2023-03-15T06:14:40;96468.31;;;2.29;87.90
25080;BME280;13071;48.868;9.996;2023-03-15T06:17:07;96477.31;;;2.38;86.94
25080;BME280;13071;48.868;9.996;2023-03-15T06:19:34;96477.56;;;2.41;86.76
25080;BME280;13071;48.868;9.996;2023-03-15T06:22:00;96492.34;;;2.29;86.67
25080;BME280;13071;48.868;9.996;2023-03-15T06:24:27;96495.28;;;2.27;87.31
25080;BME280;13071;48.868;9.996;2023-03-15T06:26:54;96495.41;;;2.17;87.56
25080;BME280;13071;48.868;9.996;2023-03-15T06:29:22;96489.81;;;2.13;88.04
25080;BME280;13071;48.868;9.996;2023-03-15T06:31:49;96499.25;;;2.01;87.81
25080;BME280;13071;48.868;9.996;2023-03-15T06:34:17;96501.91;;;2.01;88.77
25080;BME280;13071;48.868;9.996;2023-03-15T06:36:45;96503.53;;;2.02;89.38
25080;BME280;13071;48.868;9.996;2023-03-15T06:39:12;96503.94;;;2.14;89.45
25080;BME280;13071;48.868;9.996;2023-03-15T06:41:39;96509.97;;;1.96;89.29
25080;BME280;13071;48.868;9.996;2023-03-15T06:44:07;96525.72;;;1.97;89.69
25080;BME280;13071;48.868;9.996;2023-03-15T06:46:35;96512.63;;;1.96;90.41
25080;BME280;13071;48.868;9.996;2023-03-15T06:49:02;96521.09;;;2.03;90.44
25080;BME280;13071;48.868;9.996;2023-03-15T06:51:29;96532.59;;;2.03;90.76
25080;BME280;13071;48.868;9.996;2023-03-15T06:53:55;96531.47;;;2.09;90.47
25080;BME280;13071;48.868;9.996;2023-03-15T06:56:22;96540.25;;;2.15;91.35
25080;BME280;13071;48.868;9.996;2023-03-15T06:58:48;96542.28;;;2.28;90.68
25080;BME280;13071;48.868;9.996;2023-03-15T07:01:15;96543.88;;;2.29;89.82
25080;BME280;13071;48.868;9.996;2023-03-15T07:03:43;96546.31;;;2.26;90.21
25080;BME280;13071;48.868;9.996;2023-03-15T07:06:09;96543.34;;;2.27;90.37
25080;BME280;13071;48.868;9.996;2023-03-15T07:08:36;96551.31;;;2.32;89.56
25080;BME280;13071;48.868;9.996;2023-03-15T07:11:03;96548.63;;;2.37;89.62
25080;BME280;13071;48.868;9.996;2023-03-15T07:13:30;96542.81;;;2.30;89.53
25080;BME280;13071;48.868;9.996;2023-03-15T07:15:57;96545.59;;;2.49;88.74
25080;BME280;13071;48.868;9.996;2023-03-15T07:18:23;96556.06;;;2.45;88.22
25080;BME280;13071;48.868;9.996;2023-03-15T07:21:01;96544.78;;;2.48;88.65
25080;BME280;13071;48.868;9.996;2023-03-15T07:23:29;96548.72;;;2.22;88.42
25080;BME280;13071;48.868;9.996;2023-03-15T07:25:56;96539.41;;;2.20;89.05
25080;BME280;13071;48.868;9.996;2023-03-15T07:28:24;96546.28;;;2.31;88.20
25080;BME280;13071;48.868;9.996;2023-03-15T07:30:52;96551.50;;;2.46;87.04
25080;BME280;13071;48.868;9.996;2023-03-15T07:33:19;96558.44;;;2.47;87.54
25080;BME280;13071;48.868;9.996;2023-03-15T07:35:47;96553.13;;;2.76;87.36
25080;BME280;13071;48.868;9.996;2023-03-15T07:38:15;96550.84;;;2.59;87.37
25080;BME280;13071;48.868;9.996;2023-03-15T07:40:42;96550.91;;;2.83;86.19
25080;BME280;13071;48.868;9.996;2023-03-15T07:43:08;96559.50;;;2.80;86.10
25080;BME280;13071;48.868;9.996;2023-03-15T07:45:35;96563.38;;;2.92;86.76
25080;BME280;13071;48.868;9.996;2023-03-15T07:48:02;96568.41;;;2.99;85.28
25080;BME280;13071;48.868;9.996;2023-03-15T07:50:28;96564.06;;;3.03;85.01
25080;BME280;13071;48.868;9.996;2023-03-15T07:52:55;96560.16;;;2.95;85.40
25080;BME280;13071;48.868;9.996;2023-03-15T07:55:23;96559.84;;;2.97;84.84
25080;BME280;13071;48.868;9.996;2023-03-15T07:57:49;96555.16;;;3.13;85.38
25080;BME280;13071;48.868;9.996;2023-03-15T08:00:17;96560.22;;;3.14;85.44
25080;BME280;13071;48.868;9.996;2023-03-15T08:02:44;96563.50;;;3.06;85.42
25080;BME280;13071;48.868;9.996;2023-03-15T08:05:10;96558.50;;;3.23;85.44
25080;BME280;13071;48.868;9.996;2023-03-15T08:07:37;96559.94;;;3.39;83.93
25080;BME280;13071;48.868;9.996;2023-03-15T08:10:04;96566.19;;;3.30;83.62
25080;BME280;13071;48.868;9.996;2023-03-15T08:12:32;96567.97;;;3.39;83.25
25080;BME280;13071;48.868;9.996;2023-03-15T08:14:59;96576.38;;;3.28;82.05
25080;BME280;13071;48.868;9.996;2023-03-15T08:17:26;96577.50;;;3.45;82.81
25080;BME280;13071;48.868;9.996;2023-03-15T08:19:52;96570.56;;;3.68;82.76
25080;BME280;13071;48.868;9.996;2023-03-15T08:22:19;96575.88;;;3.50;81.84
25080;BME280;13071;48.868;9.996;2023-03-15T08:24:45;96576.03;;;3.58;82.73
25080;BME280;13071;48.868;9.996;2023-03-15T08:27:12;96567.09;;;3.68;82.68
25080;BME280;13071;48.868;9.996;2023-03-15T08:29:40;96572.66;;;3.90;82.65
25080;BME280;13071;48.868;9.996;2023-03-15T08:32:07;96571.91;;;3.89;81.58
25080;BME280;13071;48.868;9.996;2023-03-15T08:34:34;96573.78;;;4.08;82.05
25080;BME280;13071;48.868;9.996;2023-03-15T08:37:01;96577.41;;;3.98;80.87
25080;BME280;13071;48.868;9.996;2023-03-15T08:39:27;96582.69;;;4.03;80.84
25080;BME280;13071;48.868;9.996;2023-03-15T08:41:54;96584.03;;;4.01;81.17
25080;BME280;13071;48.868;9.996;2023-03-15T08:44:20;96581.34;;;4.19;81.66
25080;BME280;13071;48.868;9.996;2023-03-15T08:46:48;96579.00;;;4.18;80.34
25080;BME280;13071;48.868;9.996;2023-03-15T08:49:15;96585.22;;;4.13;79.44
25080;BME280;13071;48.868;9.996;2023-03-15T08:51:41;96580.41;;;4.10;79.88
25080;BME280;13071;48.868;9.996;2023-03-15T08:54:08;96571.25;;;3.98;80.19
25080;BME280;13071;48.868;9.996;2023-03-15T08:56:35;96572.91;;;3.94;78.36
25080;BME280;13071;48.868;9.996;2023-03-15T08:59:01;96572.97;;;4.07;78.37
25080;BME280;13071;48.868;9.996;2023-03-15T09:01:28;96582.69;;;4.03;77.73
25080;BME280;13071;48.868;9.996;2023-03-15T09:03:56;96587.38;;;4.11;76.63
25080;BME280;13071;48.868;9.996;2023-03-15T09:06:23;96591.28;;;4.00;75.52
25080;BME280;13071;48.868;9.996;2023-03-15T09:08:50;96592.88;;;4.01;75.63
25080;BME280;13071;48.868;9.996;2023-03-15T09:11:18;96590.56;;;4.13;74.93
25080;BME280;13071;48.868;9.996;2023-03-15T09:13:44;96595.94;;;4.32;75.14
25080;BME280;13071;48.868;9.996;2023-03-15T09:16:11;96603.16;;;4.50;76.11
25080;BME280;13071;48.868;9.996;2023-03-15T09:18:38;96606.97;;;4.44;74.96
25080;BME280;13071;48.868;9.996;2023-03-15T09:21:06;96612.13;;;4.41;75.36
25080;BME280;13071;48.868;9.996;2023-03-15T09:23:33;96602.38;;;4.31;74.17
25080;BME280;13071;48.868;9.996;2023-03-15T09:25:59;96595.84;;;4.37;71.65
25080;BME280;13071;48.868;9.996;2023-03-15T09:28:26;96613.22;;;4.58;71.92
25080;BME280;13071;48.868;9.996;2023-03-15T09:30:53;96613.44;;;4.62;71.70
25080;BME280;13071;48.868;9.996;2023-03-15T09:33:20;96613.53;;;4.38;70.23
25080;BME280;13071;48.868;9.996;2023-03-15T09:35:49;96610.56;;;4.58;71.62
25080;BME280;13071;48.868;9.996;2023-03-15T09:38:18;96609.94;;;4.61;68.23
25080;BME280;13071;48.868;9.996;2023-03-15T09:40:46;96614.56;;;4.74;69.85
25080;BME280;13071;48.868;9.996;2023-03-15T09:46:17;96611.00;;;5.11;69.96
25080;BME280;13071;48.868;9.996;2023-03-15T09:48:51;96614.94;;;5.33;70.63
25080;BME280;13071;48.868;9.996;2023-03-15T09:51:27;96619.22;;;5.47;68.18
25080;BME280;13071;48.868;9.996;2023-03-15T09:54:03;96622.91;;;5.65;69.92
25080;BME280;13071;48.868;9.996;2023-03-15T09:56:33;96618.16;;;5.89;71.60
25080;BME280;13071;48.868;9.996;2023-03-15T09:59:01;96613.88;;;5.88;68.56
25080;BME280;13071;48.868;9.996;2023-03-15T10:01:30;96615.34;;;6.08;70.17
25080;BME280;13071;48.868;9.996;2023-03-15T10:04:02;96610.38;;;5.88;67.42
25080;BME280;13071;48.868;9.996;2023-03-15T10:06:31;96618.22;;;5.98;67.49
25080;BME280;13071;48.868;9.996;2023-03-15T10:09:02;96611.25;;;5.56;68.09
25080;BME280;13071;48.868;9.996;2023-03-15T10:11:34;96612.03;;;5.43;66.66
25080;BME280;13071;48.868;9.996;2023-03-15T10:14:17;96618.38;;;5.33;65.08
25080;BME280;13071;48.868;9.996;2023-03-15T10:16:49;96619.78;;;5.44;66.27
25080;BME280;13071;48.868;9.996;2023-03-15T10:19:24;96611.84;;;5.53;67.38
25080;BME280;13071;48.868;9.996;2023-03-15T10:21:57;96611.16;;;5.75;68.16
25080;BME280;13071;48.868;9.996;2023-03-15T10:24:33;96607.41;;;5.89;67.07
25080;BME280;13071;48.868;9.996;2023-03-15T10:27:12;96610.59;;;5.91;67.56
25080;BME280;13071;48.868;9.996;2023-03-15T10:29:40;96616.53;;;5.88;64.78
25080;BME280;13071;48.868;9.996;2023-03-15T10:32:13;96615.53;;;5.98;65.25
25080;BME280;13071;48.868;9.996;2023-03-15T10:34:43;96611.84;;;6.07;63.54
25080;BME280;13071;48.868;9.996;2023-03-15T10:37:10;96614.53;;;6.21;62.32
25080;BME280;13071;48.868;9.996;2023-03-15T10:39:38;96604.31;;;6.32;63.23
25080;BME280;13071;48.868;9.996;2023-03-15T10:42:23;96612.25;;;6.15;63.99
25080;BME280;13071;48.868;9.996;2023-03-15T10:44:50;96603.91;;;6.02;64.59
25080;BME280;13071;48.868;9.996;2023-03-15T10:47:19;96607.19;;;5.86;62.84
25080;BME280;13071;48.868;9.996;2023-03-15T10:49:46;96606.28;;;5.77;63.09
25080;BME280;13071;48.868;9.996;2023-03-15T10:52:27;96603.41;;;5.59;64.29
25080;BME280;13071;48.868;9.996;2023-03-15T10:54:59;96613.75;;;5.52;63.94
25080;BME280;13071;48.868;9.996;2023-03-15T10:57:27;96601.91;;;5.53;65.35
25080;BME280;13071;48.868;9.996;2023-03-15T10:59:59;96600.84;;;5.08;66.08
25080;BME280;13071;48.868;9.996;2023-03-15T11:02:30;96602.59;;;5.59;64.77
25080;BME280;13071;48.868;9.996;2023-03-15T11:05:03;96598.22;;;5.63;65.07
25080;BME280;13071;48.868;9.996;2023-03-15T11:07:52;96597.34;;;5.81;65.39
25080;BME280;13071;48.868;9.996;2023-03-15T11:10:22;96594.84;;;5.98;62.79
25080;BME280;13071;48.868;9.996;2023-03-15T11:12:49;96596.63;;;6.03;64.06
25080;BME280;13071;48.868;9.996;2023-03-15T11:15:17;96590.19;;;5.77;65.17
25080;BME280;13071;48.868;9.996;2023-03-15T11:17:45;96590.97;;;6.04;63.01
25080;BME280;13071;48.868;9.996;2023-03-15T11:20:21;96584.91;;;5.99;61.87
25080;BME280;13071;48.868;9.996;2023-03-15T11:22:52;96585.25;;;6.20;64.14
25080;BME280;13071;48.868;9.996;2023-03-15T11:25:20;96583.16;;;6.30;61.71
25080;BME280;13071;48.868;9.996;2023-03-15T11:27:49;96588.78;;;6.42;63.02
25080;BME280;13071;48.868;9.996;2023-03-15T11:30:21;96585.16;;;6.47;62.54
25080;BME280;13071;48.868;9.996;2023-03-15T11:32:51;96579.25;;;6.59;62.40
25080;BME280;13071;48.868;9.996;2023-03-15T11:35:22;96574.69;;;6.23;64.11
25080;BME280;13071;48.868;9.996;2023-03-15T11:37:52;96578.03;;;6.42;63.09
25080;BME280;13071;48.868;9.996;2023-03-15T11:40:21;96582.75;;;6.23;61.80
25080;BME280;13071;48.868;9.996;2023-03-15T11:42:55;96567.84;;;6.17;62.16
25080;BME280;13071;48.868;9.996;2023-03-15T11:45:29;96573.78;;;5.92;60.16
25080;BME280;13071;48.868;9.996;2023-03-15T11:48:03;96579.72;;;5.75;61.52
25080;BME280;13071;48.868;9.996;2023-03-15T11:50:31;96581.84;;;5.92;64.29
25080;BME280;13071;48.868;9.996;2023-03-15T11:52:58;96581.69;;;5.83;63.57
25080;BME280;13071;48.868;9.996;2023-03-15T11:55:28;96586.72;;;5.90;63.02
25080;BME280;13071;48.868;9.996;2023-03-15T11:57:56;96589.16;;;5.73;59.63
25080;BME280;13071;48.868;9.996;2023-03-15T12:00:54;96581.13;;;5.59;61.72
25080;BME280;13071;48.868;9.996;2023-03-15T12:03:33;96589.69;;;5.61;62.75
25080;BME280;13071;48.868;9.996;2023-03-15T12:08:58;96599.69;;;5.28;64.44
25080;BME280;13071;48.868;9.996;2023-03-15T12:11:40;96599.50;;;5.25;66.36
25080;BME280;13071;48.868;9.996;2023-03-15T12:14:26;96601.66;;;5.09;67.34
25080;BME280;13071;48.868;9.996;2023-03-15T12:20:07;96609.44;;;4.59;69.49
25080;BME280;13071;48.868;9.996;2023-03-15T12:22:34;96623.66;;;4.41;72.16
25080;BME280;13071;48.868;9.996;2023-03-15T12:25:10;96619.13;;;3.57;74.66
25080;BME280;13071;48.868;9.996;2023-03-15T12:27:47;96621.16;;;3.88;76.55
25080;BME280;13071;48.868;9.996;2023-03-15T12:30:20;96612.81;;;3.47;78.69
25080;BME280;13071;48.868;9.996;2023-03-15T12:32:50;96614.28;;;3.59;80.15
25080;BME280;13071;48.868;9.996;2023-03-15T12:35:20;96623.19;;;3.30;80.91
25080;BME280;13071;48.868;9.996;2023-03-15T12:37:49;96617.28;;;3.76;81.71
25080;BME280;13071;48.868;9.996;2023-03-15T12:43:39;96615.53;;;3.42;83.59
25080;BME280;13071;48.868;9.996;2023-03-15T12:49:28;96615.25;;;3.20;85.12
25080;BME280;13071;48.868;9.996;2023-03-15T12:51:56;96619.22;;;3.70;85.33
25080;BME280;13071;48.868;9.996;2023-03-15T12:54:25;96626.03;;;3.63;83.69
25080;BME280;13071;48.868;9.996;2023-03-15T12:56:56;96622.03;;;3.60;83.90
25080;BME280;13071;48.868;9.996;2023-03-15T12:59:29;96622.28;;;3.40;85.50
25080;BME280;13071;48.868;9.996;2023-03-15T13:01:59;96626.22;;;3.19;87.09
25080;BME280;13071;48.868;9.996;2023-03-15T13:04:27;96620.97;;;3.09;88.90
25080;BME280;13071;48.868;9.996;2023-03-15T13:07:19;96631.84;;;3.17;89.60
25080;BME280;13071;48.868;9.996;2023-03-15T13:10:00;96648.50;;;3.09;90.03
25080;BME280;13071;48.868;9.996;2023-03-15T13:12:33;96651.72;;;3.06;90.43
25080;BME280;13071;48.868;9.996;2023-03-15T13:15:08;96647.13;;;3.12;92.04
25080;BME280;13071;48.868;9.996;2023-03-15T13:17:42;96654.44;;;2.67;91.25
25080;BME280;13071;48.868;9.996;2023-03-15T13:20:22;96661.13;;;2.70;91.28
25080;BME280;13071;48.868;9.996;2023-03-15T13:22:59;96657.28;;;3.15;92.18
25080;BME280;13071;48.868;9.996;2023-03-15T13:25:32;96661.50;;;2.87;90.59
25080;BME280;13071;48.868;9.996;2023-03-15T13:28:06;96661.00;;;3.19;91.16
25080;BME280;13071;48.868;9.996;2023-03-15T13:30:39;96667.13;;;3.19;91.94
25080;BME280;13071;48.868;9.996;2023-03-15T13:33:19;96662.97;;;2.74;89.69
25080;BME280;13071;48.868;9.996;2023-03-15T13:35:47;96668.19;;;2.89;91.75